Tropical Cyclones
[Index]
Main Index Home Page Stock Weather Photos Extreme Storms Discussion Storm News and Storm Chasing Reports Tropical Cyclones / Hurricanes / Typhoons Weather Data and Links Wild Fires / Bushfires Weather Observation Techniques Weather Picture Catalogue Tornado Pictures and Reports Stock Video Footage and DVDs for sale
Season 1955-1956 Tropical Cyclone 195615 Track Map
Season 1955-1956 Summaries: [BoM-AU] [JTWC-AU] [JTWC-SIO] [JTWC-SPAC] [JTWC-SH]
<<- Previous TC | JTWC 1955-1956 Season | Next TC ->>

click for intensity scale information  Lat/long Grid: Show Hide

 Date Labels: Show Hide

Joint Typhoon Warning Centre Cyclone Data

Name: 195615
Number: 257 / 5615

28 Jan 1956 00:00 UTC to 05 Feb 1956 18:00 UTC

    date/time    lat    long     hPa   cat  kts
1956-01-28 00   10.2   122.0                              
1956-01-28 06   10.3   121.7                              
1956-01-28 12   10.4   121.5                              
1956-01-28 18   10.7   121.2                              
1956-01-29 00   10.9   121.0                              
1956-01-29 06   11.1   120.7                              
1956-01-29 12   11.2   120.4                              
1956-01-29 18   11.4   120.1                              
1956-01-30 00   11.7   119.8                              
1956-01-30 06   12.2   119.1                              
1956-01-30 12   12.9   118.4                              
1956-01-30 18   13.6   117.8                              
1956-01-31 00   14.2   117.2                              
1956-01-31 06   14.8   116.4                              
1956-01-31 12   15.4   115.6                              
1956-01-31 18   15.9   114.7                              
1956-02-01 00   16.4   113.7                              
1956-02-01 06   16.9   112.6                              
1956-02-01 12   17.5   111.4                              
1956-02-01 18   18.1   110.1                              
1956-02-02 00   18.7   108.9                              
1956-02-02 06   18.9   108.2                              
1956-02-02 12   19.1   107.5                              
1956-02-02 18   19.6   106.8                              
1956-02-03 00   19.9   106.2                              
1956-02-03 06   20.1   106.0                              
1956-02-03 12   20.2   105.9                              
1956-02-03 18   20.4   105.6                              
1956-02-04 00   20.6   105.2                              
1956-02-04 06   21.0   104.6                              
1956-02-04 12   21.5   104.0                              
1956-02-04 18   22.1   103.5                              
1956-02-05 00   22.6   103.1                              
1956-02-05 06   22.9   103.2                              
1956-02-05 12   23.0   103.6                              
1956-02-05 18   23.1   104.1                              
Winds are 1-min average.

Tropical cyclone tracks developed by Michael Bath using data from the Joint Typhoon Warning Centre Best Tracks and Google Maps.


[Australian Severe Weather index] [Copyright Notice] [Email Contacts] [Search This Site] [Privacy Policy]
Document: tropical_cyclone_195615.htm Updated: 18 September 2016